Time;durP1;ratioP1;P1;durP2;ratioP2;P2;SDS_P1;SDS_P2;PMS_P1;PMS_P2;Temp;Humidity;BMP_temperature;BMP_pressure;BME280_temperature;BME280_humidity;BME280_pressure;Samples;Min_cycle;Max_cycle;Signal;HPM_P1;HPM_P2
2023/06/23 00:00:13;;;;;;;5.37;0.90;;;25.90;54.40;;;;;;5072711;28;20961;-86
2023/06/23 00:02:42;;;;;;;1.10;0.83;;;25.80;54.90;;;;;;5060789;28;20992;-87
2023/06/23 00:05:11;;;;;;;1.30;0.80;;;25.80;55.40;;;;;;5048823;27;20474;-86
2023/06/23 00:07:39;;;;;;;0.80;0.70;;;26.00;55.30;;;;;;5059077;28;20541;-86
2023/06/23 00:10:08;;;;;;;0.90;0.70;;;26.10;55.10;;;;;;5073074;27;21051;-86
2023/06/23 00:12:41;;;;;;;1.98;0.85;;;26.00;55.10;;;;;;5044302;28;20455;-86
2023/06/23 00:15:09;;;;;;;1.00;0.73;;;25.70;55.20;;;;;;5072745;28;20197;-86
2023/06/23 00:17:36;;;;;;;1.13;0.70;;;25.70;55.90;;;;;;5045670;28;20944;-87
2023/06/23 00:20:07;;;;;;;2.30;0.80;;;25.60;56.20;;;;;;5058273;28;20543;-85
2023/06/23 00:22:34;;;;;;;0.80;0.53;;;25.60;56.20;;;;;;5091212;28;20467;-88
2023/06/23 00:25:01;;;;;;;1.63;0.70;;;25.30;56.80;;;;;;5058727;28;20452;-86
2023/06/23 00:27:28;;;;;;;0.90;0.80;;;25.20;56.70;;;;;;5040331;28;21206;-87
2023/06/23 00:29:56;;;;;;;1.53;0.70;;;25.40;56.70;;;;;;5078355;28;20448;-88
2023/06/23 00:32:23;;;;;;;1.20;0.90;;;25.40;56.40;;;;;;5040678;28;20452;-86
2023/06/23 00:34:50;;;;;;;1.67;0.60;;;25.40;56.40;;;;;;5078105;28;20439;-87
2023/06/23 00:37:17;;;;;;;0.80;0.60;;;25.30;56.40;;;;;;5088225;28;20440;-87
2023/06/23 00:39:44;;;;;;;0.80;0.67;;;25.30;56.40;;;;;;5066158;28;20478;-86
2023/06/23 00:42:11;;;;;;;1.07;0.70;;;25.30;56.40;;;;;;5078304;28;20464;-87
2023/06/23 00:44:38;;;;;;;1.00;0.87;;;25.40;56.40;;;;;;5079037;28;20443;-87
2023/06/23 00:47:08;;;;;;;1.07;0.97;;;25.30;56.80;;;;;;5082074;28;20835;-86
2023/06/23 00:49:36;;;;;;;1.30;1.20;;;25.10;55.80;;;;;;5038022;28;20939;-86
2023/06/23 00:52:04;;;;;;;1.85;1.38;;;24.90;56.80;;;;;;5065195;28;20955;-87
2023/06/23 00:54:34;;;;;;;1.50;1.40;;;24.80;57.20;;;;;;5074544;28;20207;-86
2023/06/23 00:57:01;;;;;;;2.67;1.90;;;24.60;56.30;;;;;;5074208;28;20207;-87
2023/06/23 00:59:29;;;;;;;3.20;1.80;;;24.40;56.30;;;;;;5082076;28;20534;-88
2023/06/23 01:01:59;;;;;;;3.50;1.90;;;24.20;56.90;;;;;;5067503;28;20480;-88
2023/06/23 01:04:28;;;;;;;2.53;2.23;;;24.30;56.80;;;;;;5076231;28;20447;-87
2023/06/23 01:07:15;;;;;;;2.83;2.57;;;24.40;56.80;;;;;;5061304;28;20448;-86
2023/06/23 01:09:49;;;;;;;2.30;2.10;;;24.40;56.30;;;;;;5063641;28;20440;-86
2023/06/23 01:12:26;;;;;;;5.33;2.50;;;24.40;55.80;;;;;;5074478;28;20454;-86
2023/06/23 01:15:02;;;;;;;3.10;2.77;;;24.50;55.70;;;;;;5092688;28;20855;-87
2023/06/23 01:17:37;;;;;;;2.93;2.67;;;24.40;55.50;;;;;;5086638;27;20445;-86
2023/06/23 01:20:19;;;;;;;4.13;3.53;;;24.20;56.30;;;;;;5073566;28;20471;-86
2023/06/23 01:23:00;;;;;;;3.10;2.80;;;24.40;56.00;;;;;;5082813;28;20463;-87
2023/06/23 01:25:38;;;;;;;3.57;3.00;;;24.50;55.10;;;;;;5106033;27;20694;-88
2023/06/23 01:28:48;;;;;;;3.60;3.30;;;24.60;55.50;;;;;;5081343;28;20447;-86
2023/06/23 01:31:23;;;;;;;4.00;3.40;;;24.60;54.80;;;;;;5043898;28;20468;-86
2023/06/23 01:33:56;;;;;;;3.63;3.33;;;24.70;54.80;;;;;;5047802;28;20442;-86
2023/06/23 01:36:30;;;;;;;4.17;3.60;;;24.60;54.50;;;;;;5088773;28;20440;-86
2023/06/23 01:39:04;;;;;;;4.30;3.90;;;24.50;55.00;;;;;;5055485;28;20526;-86
2023/06/23 01:41:39;;;;;;;3.90;3.50;;;24.60;55.00;;;;;;5039159;28;20298;-86
2023/06/23 01:44:13;;;;;;;6.30;4.00;;;24.50;54.60;;;;;;5064156;28;20430;-88
2023/06/23 01:46:45;;;;;;;5.43;3.53;;;24.10;54.90;;;;;;5082009;28;20672;-86
2023/06/23 01:49:16;;;;;;;6.27;3.60;;;24.10;55.00;;;;;;5058767;28;20542;-86
2023/06/23 01:51:47;;;;;;;6.00;3.73;;;24.10;54.70;;;;;;5078067;28;20463;-86
2023/06/23 01:54:17;;;;;;;5.53;3.63;;;24.20;54.90;;;;;;5070673;28;20475;-86
2023/06/23 01:56:46;;;;;;;4.40;3.70;;;24.30;54.70;;;;;;5067050;28;20467;-85
2023/06/23 01:59:14;;;;;;;8.55;3.60;;;24.10;53.80;;;;;;5047228;28;20432;-88
2023/06/23 02:01:46;;;;;;;6.07;4.37;;;23.60;55.10;;;;;;5066507;28;20307;-88
2023/06/23 02:04:15;;;;;;;4.83;4.23;;;23.70;55.20;;;;;;5049502;28;20459;-87
2023/06/23 02:06:45;;;;;;;5.23;3.70;;;23.80;55.30;;;;;;5058639;28;20456;-87
2023/06/23 02:09:15;;;;;;;3.93;3.53;;;24.00;55.10;;;;;;5049016;28;20457;-87
2023/06/23 02:11:44;;;;;;;6.03;4.67;;;24.10;54.50;;;;;;5047790;28;20506;-88
2023/06/23 02:14:14;;;;;;;4.83;4.17;;;23.70;55.30;;;;;;5062390;28;20456;-88
2023/06/23 02:16:44;;;;;;;4.93;3.80;;;23.40;56.10;;;;;;5062251;28;20516;-87
2023/06/23 02:19:12;;;;;;;5.93;4.27;;;23.40;55.40;;;;;;5065248;28;20545;-86
2023/06/23 02:21:40;;;;;;;4.40;4.00;;;23.30;55.40;;;;;;5075933;28;20473;-88
2023/06/23 02:24:08;;;;;;;5.50;4.63;;;23.60;55.40;;;;;;5081312;28;20456;-88
2023/06/23 02:26:38;;;;;;;5.00;3.93;;;23.70;55.20;;;;;;5077642;28;20459;-86
2023/06/23 02:29:07;;;;;;;4.97;4.43;;;23.80;55.00;;;;;;5078694;28;20449;-88
2023/06/23 02:31:34;;;;;;;7.07;4.93;;;24.00;55.20;;;;;;5062913;28;20458;-87
2023/06/23 02:34:03;;;;;;;5.00;4.50;;;24.10;54.80;;;;;;5078811;28;20467;-86
2023/06/23 02:36:35;;;;;;;6.07;4.53;;;24.30;54.80;;;;;;5094180;28;20997;-87
2023/06/23 02:39:04;;;;;;;6.30;4.80;;;24.10;55.00;;;;;;5092886;28;20459;-87
2023/06/23 02:41:35;;;;;;;5.73;5.13;;;24.00;55.60;;;;;;5069463;28;20470;-87
2023/06/23 02:44:08;;;;;;;4.70;4.20;;;23.70;55.60;;;;;;5046923;28;20452;-87
2023/06/23 02:46:38;;;;;;;6.80;5.30;;;23.70;56.00;;;;;;5069065;28;20452;-87
2023/06/23 02:49:11;;;;;;;5.10;4.53;;;23.90;55.80;;;;;;5077354;28;20471;-88
2023/06/23 02:51:40;;;;;;;6.00;4.87;;;24.10;55.10;;;;;;5084117;28;20463;-87
2023/06/23 02:54:12;;;;;;;5.03;4.50;;;24.10;55.30;;;;;;5071299;28;20942;-88
2023/06/23 02:56:42;;;;;;;6.17;4.30;;;24.10;55.40;;;;;;5077386;28;20449;-88
2023/06/23 02:59:13;;;;;;;5.28;4.57;;;24.10;55.50;;;;;;5052340;28;20447;-88
2023/06/23 03:01:45;;;;;;;4.90;4.37;;;23.90;55.80;;;;;;5097202;28;20220;-87
2023/06/23 03:04:13;;;;;;;4.43;3.90;;;24.00;55.40;;;;;;5051665;28;21052;-87
2023/06/23 03:06:40;;;;;;;5.67;5.10;;;23.90;54.80;;;;;;5068092;28;20463;-88
2023/06/23 03:09:07;;;;;;;4.90;4.13;;;23.80;55.30;;;;;;5068384;28;20446;-88
2023/06/23 03:11:35;;;;;;;6.90;4.23;;;23.70;55.20;;;;;;5062857;28;20566;-87
2023/06/23 03:14:02;;;;;;;4.70;4.30;;;23.70;55.00;;;;;;5053314;28;20534;-86
2023/06/23 03:16:33;;;;;;;5.90;4.20;;;23.70;54.70;;;;;;5048275;28;20449;-87
2023/06/23 03:19:14;;;;;;;4.33;3.93;;;23.50;55.10;;;;;;5069522;28;21036;-89
2023/06/23 03:21:46;;;;;;;6.03;4.77;;;23.60;55.00;;;;;;5097631;28;20611;-88
2023/06/23 03:24:15;;;;;;;6.70;4.90;;;23.70;55.00;;;;;;5058543;28;20458;-86
2023/06/23 03:26:48;;;;;;;6.20;4.47;;;23.60;54.70;;;;;;5062493;28;20470;-88
2023/06/23 03:29:17;;;;;;;4.93;4.53;;;23.70;54.60;;;;;;5065751;28;20442;-87
2023/06/23 03:31:46;;;;;;;4.60;4.20;;;23.70;54.10;;;;;;5046804;28;20470;-88
2023/06/23 03:34:16;;;;;;;4.80;3.93;;;23.90;54.00;;;;;;5060686;27;20542;-87
2023/06/23 03:36:46;;;;;;;6.27;5.10;;;23.90;54.20;;;;;;5107900;27;20444;-87
2023/06/23 03:39:20;;;;;;;4.73;4.17;;;23.70;54.10;;;;;;5059279;28;20541;-88
2023/06/23 03:41:49;;;;;;;4.70;4.30;;;23.50;54.60;;;;;;5078512;28;20475;-86
2023/06/23 03:44:25;;;;;;;7.70;5.17;;;23.50;54.80;;;;;;5091740;27;20444;-87
2023/06/23 03:46:55;;;;;;;5.07;4.57;;;23.70;54.40;;;;;;5047773;28;20545;-87
2023/06/23 03:49:29;;;;;;;5.57;4.47;;;23.70;54.40;;;;;;5083438;28;20451;-87
2023/06/23 03:52:00;;;;;;;6.13;4.50;;;23.50;54.80;;;;;;5094091;28;20463;-86
2023/06/23 03:54:28;;;;;;;8.00;4.40;;;23.40;55.00;;;;;;5093470;27;20446;-87
2023/06/23 03:56:57;;;;;;;5.33;4.83;;;23.40;55.10;;;;;;5081530;28;20690;-86
2023/06/23 03:59:28;;;;;;;4.40;3.97;;;23.50;55.20;;;;;;5076660;28;20453;-87
2023/06/23 04:01:56;;;;;;;6.03;4.40;;;23.50;54.60;;;;;;5066413;28;20463;-87
2023/06/23 04:04:25;;;;;;;6.47;4.70;;;23.40;54.80;;;;;;5064706;27;20457;-88
2023/06/23 04:06:53;;;;;;;7.00;4.50;;;23.30;55.10;;;;;;5074468;28;20454;-89
2023/06/23 04:09:22;;;;;;;9.00;5.40;;;23.20;55.30;;;;;;5092159;28;20434;-86
2023/06/23 04:11:53;;;;;;;4.70;4.30;;;23.20;55.70;;;;;;5081729;28;20475;-87
2023/06/23 04:14:21;;;;;;;4.37;3.97;;;23.40;54.90;;;;;;5050450;28;20451;-86
2023/06/23 04:16:51;;;;;;;6.17;4.67;;;23.20;55.50;;;;;;5072878;28;20976;-85
2023/06/23 04:19:21;;;;;;;4.60;4.20;;;23.10;55.50;;;;;;5091211;28;20482;-86
2023/06/23 04:21:49;;;;;;;7.43;4.90;;;23.00;55.80;;;;;;5091317;28;20490;-88
2023/06/23 04:24:18;;;;;;;4.83;4.43;;;23.00;56.00;;;;;;5073144;28;20447;-89
2023/06/23 04:26:51;;;;;;;5.23;4.77;;;23.00;56.40;;;;;;5088955;28;20455;-88
2023/06/23 04:29:20;;;;;;;7.40;4.30;;;23.00;56.10;;;;;;5079506;27;20439;-88
2023/06/23 04:31:50;;;;;;;5.50;4.90;;;23.10;56.10;;;;;;5077452;28;20476;-87
2023/06/23 04:34:18;;;;;;;6.50;5.27;;;23.20;56.00;;;;;;5083874;28;20687;-88
2023/06/23 04:36:47;;;;;;;6.40;5.20;;;23.20;55.30;;;;;;5073285;28;20443;-86
2023/06/23 04:39:19;;;;;;;5.30;4.80;;;23.00;55.00;;;;;;5080544;28;20440;-86
2023/06/23 04:41:53;;;;;;;6.93;4.87;;;22.80;56.10;;;;;;5046426;28;20478;-86
2023/06/23 04:44:22;;;;;;;6.93;5.53;;;22.80;56.50;;;;;;5061609;28;20485;-86
2023/06/23 04:46:52;;;;;;;5.77;5.10;;;22.80;56.20;;;;;;5070938;28;20519;-84
2023/06/23 04:49:22;;;;;;;6.47;5.70;;;23.00;56.30;;;;;;5045083;28;20443;-85
2023/06/23 04:51:53;;;;;;;9.20;5.38;;;23.00;56.00;;;;;;5077688;28;21049;-85
2023/06/23 04:54:23;;;;;;;5.97;5.10;;;23.00;56.00;;;;;;5072902;28;20304;-84
2023/06/23 04:56:59;;;;;;;5.95;5.35;;;23.10;55.60;;;;;;5075149;28;20551;-84
2023/06/23 04:59:28;;;;;;;5.27;4.77;;;22.90;55.60;;;;;;5062549;28;20210;-85
2023/06/23 05:01:56;;;;;;;7.50;5.07;;;22.70;56.20;;;;;;5071614;28;20474;-83
2023/06/23 05:04:24;;;;;;;5.00;4.50;;;22.60;55.50;;;;;;5040094;28;20464;-84
2023/06/23 05:06:52;;;;;;;5.77;4.77;;;22.20;56.50;;;;;;5057028;28;20458;-85
2023/06/23 05:09:21;;;;;;;9.57;4.83;;;22.30;57.10;;;;;;5104520;27;20436;-85
2023/06/23 05:11:51;;;;;;;6.50;4.00;;;22.30;55.80;;;;;;5076284;28;20494;-86
2023/06/23 05:14:21;;;;;;;10.73;4.50;;;22.30;56.50;;;;;;5070724;28;20452;-84
2023/06/23 05:16:49;;;;;;;5.63;4.50;;;22.40;56.00;;;;;;5063814;28;20815;-84
2023/06/23 05:19:17;;;;;;;5.87;4.80;;;22.50;56.30;;;;;;5072199;28;20446;-85
2023/06/23 05:21:45;;;;;;;11.23;5.30;;;22.70;55.90;;;;;;5073589;28;20467;-85
2023/06/23 05:24:16;;;;;;;7.17;4.37;;;22.90;55.80;;;;;;5083779;28;20499;-86
2023/06/23 05:26:44;;;;;;;14.53;5.37;;;22.80;55.20;;;;;;5077799;28;20458;-85
2023/06/23 05:29:16;;;;;;;4.80;4.07;;;22.80;55.60;;;;;;5074410;28;20479;-85
2023/06/23 05:31:45;;;;;;;6.20;4.40;;;22.80;54.90;;;;;;5079688;28;20468;-84
2023/06/23 05:34:17;;;;;;;4.35;3.95;;;22.90;55.00;;;;;;5082983;28;20445;-85
2023/06/23 05:36:45;;;;;;;5.37;4.13;;;22.90;55.00;;;;;;5052574;28;20288;-84
2023/06/23 05:39:16;;;;;;;6.80;4.63;;;22.90;54.70;;;;;;5073219;28;20530;-85
2023/06/23 05:41:43;;;;;;;7.77;5.33;;;22.70;55.30;;;;;;5056827;28;20963;-84
2023/06/23 05:44:12;;;;;;;5.35;4.50;;;23.00;54.80;;;;;;5072337;28;20467;-84
2023/06/23 05:46:42;;;;;;;4.77;3.93;;;23.00;54.80;;;;;;5068998;28;20197;-84
2023/06/23 05:49:14;;;;;;;4.80;4.33;;;22.90;54.20;;;;;;5090878;28;20974;-85
2023/06/23 05:51:42;;;;;;;5.03;4.00;;;22.90;54.80;;;;;;5067685;28;20470;-84
2023/06/23 05:54:11;;;;;;;4.97;4.07;;;22.60;54.70;;;;;;5069391;28;20868;-84
2023/06/23 05:56:43;;;;;;;5.30;4.50;;;22.70;55.10;;;;;;5062279;28;20448;-85
2023/06/23 05:59:19;;;;;;;5.83;4.70;;;22.70;55.60;;;;;;5057305;28;20467;-84
2023/06/23 06:01:52;;;;;;;4.60;3.60;;;23.00;55.00;;;;;;5059043;28;20466;-85
2023/06/23 06:04:25;;;;;;;5.18;4.20;;;22.90;55.00;;;;;;5092185;27;20489;-85
2023/06/23 06:06:55;;;;;;;4.80;4.40;;;23.00;55.20;;;;;;5065702;28;20203;-85
2023/06/23 06:09:24;;;;;;;4.73;3.37;;;22.80;55.40;;;;;;5049872;28;20458;-86
2023/06/23 06:11:53;;;;;;;4.30;3.90;;;22.90;54.90;;;;;;5050928;28;20470;-85
2023/06/23 06:14:23;;;;;;;5.33;4.83;;;22.70;55.60;;;;;;5077618;28;20447;-85
2023/06/23 06:16:52;;;;;;;3.97;3.57;;;22.70;56.50;;;;;;5064656;28;20442;-84
2023/06/23 06:19:23;;;;;;;6.23;4.63;;;22.60;56.00;;;;;;5047772;28;20994;-83
2023/06/23 06:21:52;;;;;;;6.30;5.03;;;22.60;55.60;;;;;;5049517;28;21099;-83
2023/06/23 06:24:20;;;;;;;8.07;4.30;;;22.60;56.30;;;;;;5048375;28;20545;-84
2023/06/23 06:26:49;;;;;;;4.43;4.03;;;22.80;56.50;;;;;;5055168;28;20471;-84
2023/06/23 06:29:19;;;;;;;6.00;4.47;;;22.80;55.60;;;;;;5072970;28;20505;-84
2023/06/23 06:31:49;;;;;;;4.33;3.93;;;22.70;55.90;;;;;;5078015;28;20463;-84
2023/06/23 06:34:18;;;;;;;6.93;4.10;;;22.70;55.70;;;;;;5060329;28;20444;-86
2023/06/23 06:36:46;;;;;;;4.77;4.10;;;22.80;56.00;;;;;;5080464;28;20538;-86
2023/06/23 06:39:14;;;;;;;10.80;4.20;;;22.90;56.00;;;;;;5092014;27;21162;-84
2023/06/23 06:41:43;;;;;;;5.63;5.13;;;22.60;55.60;;;;;;5057789;28;20455;-85
2023/06/23 06:44:15;;;;;;;6.10;4.33;;;22.70;55.70;;;;;;5082652;28;20881;-84
2023/06/23 06:46:44;;;;;;;4.60;3.53;;;22.50;55.70;;;;;;5065362;28;20455;-85
2023/06/23 06:49:15;;;;;;;4.50;4.10;;;22.60;55.80;;;;;;5075370;28;20460;-85
2023/06/23 06:51:43;;;;;;;4.57;4.10;;;22.30;55.90;;;;;;5087575;28;20473;-84
2023/06/23 06:54:11;;;;;;;6.30;4.40;;;22.20;55.90;;;;;;5062682;28;20493;-85
2023/06/23 06:56:39;;;;;;;4.63;4.23;;;22.10;56.50;;;;;;5065792;28;20443;-84
2023/06/23 06:59:06;;;;;;;5.23;4.73;;;22.30;56.80;;;;;;5076755;28;20467;-86
2023/06/23 07:01:33;;;;;;;8.03;4.70;;;22.60;56.10;;;;;;5086755;27;20474;-86
2023/06/23 07:04:01;;;;;;;8.40;4.10;;;22.40;55.90;;;;;;5080883;28;20482;-86
2023/06/23 07:06:29;;;;;;;4.77;4.30;;;22.60;56.50;;;;;;5082400;27;20457;-83
2023/06/23 07:08:56;;;;;;;5.17;4.00;;;22.50;56.00;;;;;;5088706;28;20447;-85
2023/06/23 07:11:24;;;;;;;4.10;3.80;;;22.60;55.90;;;;;;5076384;28;20477;-84
2023/06/23 07:13:51;;;;;;;6.00;4.90;;;22.60;55.70;;;;;;5072012;28;20956;-85
2023/06/23 07:16:18;;;;;;;5.93;5.33;;;22.60;55.80;;;;;;5092254;28;20443;-84
2023/06/23 07:18:45;;;;;;;8.60;4.80;;;22.40;56.30;;;;;;5090003;28;20454;-83
2023/06/23 07:21:12;;;;;;;4.40;4.00;;;22.60;55.70;;;;;;5077719;28;20466;-84
2023/06/23 07:23:40;;;;;;;7.03;5.57;;;22.50;55.60;;;;;;5082592;27;20470;-85
2023/06/23 07:26:07;;;;;;;6.47;5.87;;;22.50;56.00;;;;;;5069274;28;20237;-87
2023/06/23 07:28:34;;;;;;;11.23;5.33;;;22.70;55.50;;;;;;5073277;28;20538;-84
2023/06/23 07:31:01;;;;;;;6.80;5.37;;;22.70;55.70;;;;;;5069304;28;20467;-85
2023/06/23 07:33:28;;;;;;;5.20;4.80;;;22.70;54.80;;;;;;5084150;28;20443;-86
2023/06/23 07:35:55;;;;;;;5.80;5.10;;;22.80;55.00;;;;;;5063634;28;20448;-85
2023/06/23 07:38:22;;;;;;;5.10;4.60;;;22.80;54.80;;;;;;5048525;27;20449;-85
2023/06/23 07:40:50;;;;;;;5.23;4.73;;;22.80;54.90;;;;;;5087945;28;20486;-88
2023/06/23 07:43:17;;;;;;;5.00;4.60;;;22.90;54.80;;;;;;5105642;27;20468;-88
2023/06/23 07:45:44;;;;;;;8.17;6.17;;;22.60;54.40;;;;;;5080302;28;20460;-88
2023/06/23 07:48:11;;;;;;;6.30;4.87;;;22.60;54.70;;;;;;5055987;28;20444;-85
2023/06/23 07:50:38;;;;;;;5.00;4.47;;;22.50;54.90;;;;;;5076868;27;21168;-85
2023/06/23 07:53:04;;;;;;;5.23;4.73;;;22.50;54.70;;;;;;5087397;28;20455;-85
2023/06/23 07:55:31;;;;;;;5.50;5.00;;;22.30;55.00;;;;;;5046200;28;20478;-85
2023/06/23 07:58:00;;;;;;;5.30;4.80;;;22.30;55.00;;;;;;5080313;28;20525;-85
2023/06/23 08:00:27;;;;;;;10.03;5.33;;;22.40;55.10;;;;;;5041551;28;20460;-85
2023/06/23 08:02:53;;;;;;;6.60;5.27;;;22.50;54.50;;;;;;5065576;28;20990;-86
2023/06/23 08:05:20;;;;;;;9.20;5.10;;;22.40;54.90;;;;;;5049488;28;20471;-86
2023/06/23 08:07:48;;;;;;;5.23;4.70;;;22.30;55.00;;;;;;5072381;28;20532;-86
2023/06/23 08:10:15;;;;;;;6.60;4.90;;;22.30;55.30;;;;;;5055543;28;20471;-85
2023/06/23 08:12:42;;;;;;;6.53;5.27;;;22.40;55.20;;;;;;5071953;28;20455;-87
2023/06/23 08:15:11;;;;;;;7.30;5.23;;;22.40;55.10;;;;;;5082782;28;20527;-86
2023/06/23 08:17:38;;;;;;;7.03;5.23;;;22.60;54.90;;;;;;5056966;28;20459;-85
2023/06/23 08:20:06;;;;;;;5.80;4.90;;;22.40;54.60;;;;;;5072236;28;20474;-86
2023/06/23 08:22:33;;;;;;;5.93;5.23;;;22.60;54.40;;;;;;5085968;27;20454;-85
2023/06/23 08:25:00;;;;;;;7.30;5.40;;;22.40;54.80;;;;;;5089241;28;21501;-84
2023/06/23 08:27:27;;;;;;;6.90;5.37;;;22.50;54.80;;;;;;5088588;28;20459;-85
2023/06/23 08:29:54;;;;;;;5.03;4.60;;;22.60;54.60;;;;;;5056273;28;20454;-87
2023/06/23 08:32:28;;;;;;;8.27;5.17;;;22.50;54.20;;;;;;5093845;28;20822;-85
2023/06/23 08:34:55;;;;;;;5.30;4.80;;;22.40;54.70;;;;;;5092573;28;20448;-88
2023/06/23 08:37:22;;;;;;;6.90;5.33;;;22.50;54.90;;;;;;5055819;28;20447;-85
2023/06/23 08:39:53;;;;;;;8.30;5.53;;;22.40;55.00;;;;;;5039690;28;20975;-84
2023/06/23 08:42:23;;;;;;;14.00;5.57;;;22.30;55.80;;;;;;5079424;27;20459;-85
2023/06/23 08:44:53;;;;;;;10.63;5.50;;;22.40;56.00;;;;;;5051045;28;20469;-85
2023/06/23 08:47:23;;;;;;;10.20;6.50;;;22.60;55.20;;;;;;5045196;28;20443;-86
2023/06/23 08:49:51;;;;;;;7.50;5.60;;;22.60;55.40;;;;;;5057633;28;20951;-86
2023/06/23 08:52:20;;;;;;;6.97;6.37;;;22.50;55.80;;;;;;5050971;28;20543;-86
2023/06/23 08:54:47;;;;;;;11.07;5.60;;;22.40;56.20;;;;;;5076461;28;20986;-85
2023/06/23 08:57:15;;;;;;;6.70;5.20;;;22.60;56.40;;;;;;5046834;28;20467;-88
2023/06/23 08:59:42;;;;;;;9.10;5.37;;;22.70;56.10;;;;;;5063619;28;20869;-85
2023/06/23 09:02:09;;;;;;;6.93;6.03;;;22.70;55.70;;;;;;5045805;28;20451;-84
2023/06/23 09:04:37;;;;;;;7.30;5.47;;;22.70;55.40;;;;;;5089556;28;21228;-85
2023/06/23 09:07:05;;;;;;;8.10;6.00;;;22.90;55.50;;;;;;5055574;28;20448;-86
2023/06/23 09:09:32;;;;;;;6.10;4.73;;;23.20;54.80;;;;;;5053504;28;21047;-86
2023/06/23 09:12:00;;;;;;;7.97;5.77;;;23.20;54.40;;;;;;5074105;28;20851;-86
2023/06/23 09:14:30;;;;;;;9.17;5.67;;;23.30;54.50;;;;;;5068874;28;20460;-84
2023/06/23 09:16:58;;;;;;;7.00;6.30;;;23.20;53.60;;;;;;5056387;28;20458;-85
2023/06/23 09:19:25;;;;;;;6.57;5.93;;;23.20;54.00;;;;;;5058897;28;20490;-85
2023/06/23 09:21:55;;;;;;;7.10;5.70;;;23.30;53.50;;;;;;5053353;28;20467;-84
2023/06/23 09:24:22;;;;;;;6.57;5.90;;;23.40;54.20;;;;;;5036489;28;20992;-85
2023/06/23 09:26:51;;;;;;;6.20;5.60;;;23.40;53.30;;;;;;5046427;28;20447;-84
2023/06/23 09:29:19;;;;;;;6.50;5.90;;;23.50;53.00;;;;;;5062086;28;20458;-85
2023/06/23 09:31:48;;;;;;;6.50;5.80;;;23.00;53.20;;;;;;5070420;28;20478;-86
2023/06/23 09:34:23;;;;;;;6.67;5.90;;;22.80;53.80;;;;;;5052558;28;20451;-86
2023/06/23 09:36:52;;;;;;;6.40;5.80;;;23.00;53.30;;;;;;5056635;28;20443;-86
2023/06/23 09:39:21;;;;;;;7.40;5.93;;;23.00;53.30;;;;;;5052039;28;20448;-85
2023/06/23 09:41:54;;;;;;;6.60;5.70;;;22.90;53.20;;;;;;5071960;28;20483;-84
2023/06/23 09:44:21;;;;;;;11.35;6.00;;;23.00;52.80;;;;;;5053958;28;21051;-86
2023/06/23 09:46:59;;;;;;;6.70;5.10;;;22.90;53.20;;;;;;5052109;28;20205;-86
2023/06/23 09:49:26;;;;;;;6.80;5.80;;;22.80;53.00;;;;;;5070539;28;20450;-85
2023/06/23 09:51:54;;;;;;;9.57;6.20;;;22.90;53.20;;;;;;5059123;28;20486;-84
2023/06/23 09:54:34;;;;;;;6.27;5.67;;;23.20;52.80;;;;;;5080124;28;20451;-86
2023/06/23 09:57:06;;;;;;;5.50;5.00;;;23.30;52.70;;;;;;5061961;28;20879;-86
2023/06/23 09:59:33;;;;;;;5.80;5.23;;;23.40;52.10;;;;;;5086826;28;20546;-86
2023/06/23 10:02:00;;;;;;;8.30;5.43;;;23.30;51.40;;;;;;5041345;28;20470;-85
2023/06/23 10:04:30;;;;;;;6.73;6.13;;;23.10;52.30;;;;;;5071131;28;20463;-86
2023/06/23 10:06:58;;;;;;;8.53;5.60;;;23.30;52.70;;;;;;5073189;28;20455;-88
2023/06/23 10:09:26;;;;;;;6.80;6.10;;;23.20;51.80;;;;;;5056862;28;21002;-85
2023/06/23 10:11:55;;;;;;;6.87;5.67;;;23.20;51.70;;;;;;5064749;28;20499;-86
2023/06/23 10:14:22;;;;;;;6.07;5.23;;;23.20;52.10;;;;;;5090977;28;20443;-86
2023/06/23 10:16:56;;;;;;;6.80;6.10;;;22.90;52.00;;;;;;5091932;28;20467;-85
2023/06/23 10:19:23;;;;;;;12.60;6.03;;;22.90;52.40;;;;;;5061213;28;20497;-86
2023/06/23 10:21:51;;;;;;;9.03;6.37;;;23.00;53.00;;;;;;5056100;28;20498;-85
2023/06/23 10:24:19;;;;;;;8.57;5.70;;;23.20;52.20;;;;;;5072750;28;20482;-85
2023/06/23 10:26:47;;;;;;;9.73;6.10;;;23.20;52.50;;;;;;5093364;28;20844;-85
2023/06/23 10:29:18;;;;;;;6.47;5.80;;;23.40;52.20;;;;;;5065839;28;20588;-85
2023/06/23 10:31:46;;;;;;;8.40;5.60;;;23.60;51.60;;;;;;5071472;28;20467;-86
2023/06/23 10:34:15;;;;;;;5.90;5.30;;;23.50;51.20;;;;;;5056775;28;20521;-86
2023/06/23 10:36:45;;;;;;;6.70;6.00;;;23.40;52.00;;;;;;5080307;28;20487;-87
2023/06/23 10:39:15;;;;;;;7.33;6.33;;;23.30;52.00;;;;;;5057041;28;20606;-86
2023/06/23 10:41:45;;;;;;;6.10;5.60;;;23.30;52.20;;;;;;5090825;27;21222;-86
2023/06/23 10:44:13;;;;;;;7.57;6.00;;;23.20;52.20;;;;;;5081308;28;20538;-87
2023/06/23 10:46:42;;;;;;;6.50;5.82;;;23.20;53.00;;;;;;5090300;27;20457;-86
2023/06/23 10:49:09;;;;;;;6.85;6.15;;;23.20;53.20;;;;;;5059035;28;20201;-86
2023/06/23 10:51:37;;;;;;;8.77;6.00;;;23.00;53.60;;;;;;5088475;27;20614;-86
2023/06/23 10:54:07;;;;;;;6.97;5.20;;;22.80;53.70;;;;;;5063312;28;20444;-87
2023/06/23 10:56:37;;;;;;;7.83;6.00;;;23.00;54.00;;;;;;5060868;28;20443;-85
2023/06/23 10:59:19;;;;;;;7.27;5.53;;;23.10;54.20;;;;;;5075420;28;20456;-86
2023/06/23 11:02:17;;;;;;;5.97;4.97;;;23.10;53.40;;;;;;5078382;28;20466;-87
2023/06/23 11:04:52;;;;;;;5.77;4.50;;;23.00;52.70;;;;;;5067643;28;20474;-85
2023/06/23 11:07:19;;;;;;;4.50;4.10;;;23.00;52.60;;;;;;5074970;28;20974;-85
2023/06/23 11:09:52;;;;;;;4.83;4.43;;;23.00;52.40;;;;;;5074566;28;20459;-86
2023/06/23 11:12:32;;;;;;;6.20;4.60;;;23.00;52.60;;;;;;5079263;28;20448;-85
2023/06/23 11:15:11;;;;;;;4.97;4.25;;;23.40;52.40;;;;;;5067000;28;20988;-85
2023/06/23 11:17:44;;;;;;;4.43;3.90;;;23.40;51.90;;;;;;5064340;28;20570;-84
2023/06/23 11:20:13;;;;;;;3.77;3.40;;;23.40;51.80;;;;;;5060153;28;20480;-87
2023/06/23 11:22:52;;;;;;;4.90;3.40;;;23.30;51.20;;;;;;5049345;28;20435;-86
2023/06/23 11:25:24;;;;;;;4.00;3.70;;;23.50;52.00;;;;;;5073750;28;20487;-86
2023/06/23 11:28:24;;;;;;;3.20;2.90;;;23.50;50.80;;;;;;5069959;28;20547;-85
2023/06/23 11:30:54;;;;;;;3.20;2.90;;;23.60;50.00;;;;;;5076108;28;20545;-86
2023/06/23 11:33:30;;;;;;;3.30;3.00;;;23.30;50.10;;;;;;5091562;28;20207;-86
2023/06/23 11:36:00;;;;;;;5.10;2.77;;;23.40;51.10;;;;;;5062798;28;20491;-86
2023/06/23 11:38:28;;;;;;;2.92;2.65;;;23.40;50.60;;;;;;5108818;27;20439;-86
2023/06/23 11:40:57;;;;;;;3.90;2.97;;;23.50;49.90;;;;;;5063627;28;20210;-86
2023/06/23 11:43:24;;;;;;;2.93;2.67;;;23.40;49.80;;;;;;5073151;28;21109;-88
2023/06/23 11:45:55;;;;;;;3.00;2.70;;;23.30;49.80;;;;;;5051490;28;20460;-88
2023/06/23 11:48:22;;;;;;;6.83;2.83;;;23.20;50.60;;;;;;5068847;28;20553;-88
2023/06/23 11:50:51;;;;;;;8.43;3.80;;;23.30;50.70;;;;;;5062281;28;20495;-87
2023/06/23 11:53:18;;;;;;;2.97;2.70;;;23.40;50.50;;;;;;5058897;28;20451;-87
2023/06/23 11:55:45;;;;;;;3.35;2.97;;;23.60;50.70;;;;;;5081250;28;20473;-85
2023/06/23 11:58:12;;;;;;;3.33;2.67;;;23.80;49.80;;;;;;5058885;28;20205;-84
2023/06/23 12:00:39;;;;;;;3.33;3.03;;;23.60;49.50;;;;;;5050554;28;20466;-88
2023/06/23 12:03:06;;;;;;;3.40;3.07;;;23.60;50.80;;;;;;5048949;28;20496;-85
2023/06/23 12:05:36;;;;;;;3.37;3.03;;;23.80;50.10;;;;;;5097644;27;20843;-86
2023/06/23 12:08:06;;;;;;;2.53;2.33;;;23.90;49.50;;;;;;5085095;28;20803;-88
2023/06/23 12:10:37;;;;;;;3.40;2.67;;;23.80;49.70;;;;;;5069418;28;20459;-86
2023/06/23 12:13:06;;;;;;;2.90;2.30;;;23.90;50.30;;;;;;5077182;28;20505;-86
2023/06/23 12:15:36;;;;;;;7.27;2.70;;;23.90;49.60;;;;;;5078024;28;20937;-86
2023/06/23 12:18:04;;;;;;;3.90;2.50;;;23.70;49.60;;;;;;5075055;28;20470;-86
2023/06/23 12:20:34;;;;;;;2.60;2.40;;;23.70;50.00;;;;;;5061267;28;20498;-85
2023/06/23 12:23:03;;;;;;;2.20;2.03;;;23.90;50.00;;;;;;5048468;28;20995;-86
2023/06/23 12:25:33;;;;;;;2.40;2.20;;;24.10;48.60;;;;;;5071476;28;21467;-86
2023/06/23 12:28:03;;;;;;;2.60;2.40;;;24.30;48.90;;;;;;5089504;27;20463;-86
2023/06/23 12:30:39;;;;;;;3.47;3.17;;;24.30;48.70;;;;;;5104985;27;20547;-85
2023/06/23 12:33:12;;;;;;;3.03;2.77;;;24.30;47.70;;;;;;5057724;28;20444;-86
2023/06/23 12:35:39;;;;;;;3.10;2.60;;;24.30;48.50;;;;;;5080748;28;21224;-86
2023/06/23 12:38:09;;;;;;;3.77;2.27;;;24.10;46.90;;;;;;5088026;28;20443;-85
2023/06/23 12:40:39;;;;;;;2.40;2.20;;;24.10;49.00;;;;;;5061862;28;20482;-86
2023/06/23 12:43:06;;;;;;;6.20;2.30;;;24.10;47.50;;;;;;5091772;28;20602;-86
2023/06/23 12:45:38;;;;;;;2.97;2.53;;;24.20;47.80;;;;;;5065443;28;20579;-85
2023/06/23 12:48:08;;;;;;;3.10;2.50;;;24.10;47.30;;;;;;5075575;28;20454;-87
2023/06/23 12:50:41;;;;;;;6.97;3.13;;;24.10;47.60;;;;;;5080943;27;21018;-87
2023/06/23 12:53:08;;;;;;;3.33;2.60;;;24.10;47.90;;;;;;5072487;28;20547;-87
2023/06/23 12:55:36;;;;;;;4.97;2.97;;;24.20;47.90;;;;;;5091892;28;20522;-87
2023/06/23 12:58:03;;;;;;;5.33;2.80;;;24.20;47.70;;;;;;5064962;28;20439;-86